Time;durP1;ratioP1;P1;durP2;ratioP2;P2;SDS_P1;SDS_P2;PMS_P1;PMS_P2;Temp;Humidity;BMP_temperature;BMP_pressure;BME280_temperature;BME280_humidity;BME280_pressure;Samples;Min_cycle;Max_cycle;Signal;HPM_P1;HPM_P2
2022/03/11 00:01:06;;;;;;;15.80;8.43;;;;;;;;;;5033614;28;20209;-67
2022/03/11 00:03:31;;;;;;;13.27;7.37;;;;;;;;;;5032006;28;20510;-67
2022/03/11 00:05:57;;;;;;;18.30;8.00;;;;;;;;;;5032792;28;20185;-67
2022/03/11 00:08:22;;;;;;;14.30;7.80;;;;;;;;;;5025947;28;20317;-67
2022/03/11 00:10:48;;;;;;;19.50;8.23;;;;;;;;;;5041417;28;20277;-66
2022/03/11 00:13:13;;;;;;;15.73;7.57;;;;;;;;;;5024131;28;20198;-66
2022/03/11 00:15:39;;;;;;;13.43;7.83;;;;;;;;;;5033454;28;20186;-66
2022/03/11 00:18:05;;;;;;;15.13;8.00;;;;;;;;;;5029371;28;20186;-67
2022/03/11 00:20:31;;;;;;;17.23;7.70;;;;;;;;;;5031020;28;20499;-68
2022/03/11 00:22:57;;;;;;;14.73;8.07;;;;;;;;;;5020621;28;20289;-66
2022/03/11 00:25:23;;;;;;;12.63;7.70;;;;;;;;;;5041861;28;20676;-67
2022/03/11 00:27:49;;;;;;;14.33;7.30;;;;;;;;;;5038211;28;20261;-66
2022/03/11 00:30:15;;;;;;;13.57;8.30;;;;;;;;;;5020908;28;20182;-68
2022/03/11 00:32:40;;;;;;;21.00;8.17;;;;;;;;;;5027898;28;20197;-66
2022/03/11 00:35:08;;;;;;;12.93;7.70;;;;;;;;;;5021889;28;20757;-66
2022/03/11 00:37:34;;;;;;;16.30;7.37;;;;;;;;;;5036095;28;20496;-66
2022/03/11 00:39:59;;;;;;;18.53;7.90;;;;;;;;;;5026128;28;20182;-66
2022/03/11 00:42:25;;;;;;;15.40;7.20;;;;;;;;;;5021445;28;20195;-67
2022/03/11 00:44:50;;;;;;;14.97;7.90;;;;;;;;;;5032396;28;20190;-66
2022/03/11 00:47:15;;;;;;;12.53;7.20;;;;;;;;;;5023903;28;20267;-67
2022/03/11 00:49:41;;;;;;;12.43;7.23;;;;;;;;;;5032154;28;20265;-67
2022/03/11 00:52:06;;;;;;;19.90;7.43;;;;;;;;;;5029375;28;20254;-67
2022/03/11 00:54:31;;;;;;;14.00;7.60;;;;;;;;;;5035070;28;20186;-67
2022/03/11 00:56:57;;;;;;;12.20;7.17;;;;;;;;;;5026833;28;20244;-67
2022/03/11 00:59:23;;;;;;;15.67;7.60;;;;;;;;;;5026608;28;20185;-67
2022/03/11 01:01:48;;;;;;;13.30;7.53;;;;;;;;;;5027635;28;20205;-66
2022/03/11 01:04:14;;;;;;;17.53;7.53;;;;;;;;;;5025925;28;20206;-66
2022/03/11 01:06:40;;;;;;;12.53;7.00;;;;;;;;;;5023549;28;20200;-67
2022/03/11 01:09:06;;;;;;;16.83;7.90;;;;;;;;;;5026015;28;20233;-67
2022/03/11 01:11:31;;;;;;;13.83;7.13;;;;;;;;;;5037311;28;20181;-67
2022/03/11 01:13:57;;;;;;;12.57;6.80;;;;;;;;;;5024085;28;20631;-67
2022/03/11 01:16:23;;;;;;;14.17;7.63;;;;;;;;;;5025015;28;20493;-67
2022/03/11 01:18:48;;;;;;;13.30;7.13;;;;;;;;;;5023833;28;20189;-67
2022/03/11 01:21:14;;;;;;;14.53;7.57;;;;;;;;;;5024932;28;20661;-67
2022/03/11 01:23:39;;;;;;;12.70;7.00;;;;;;;;;;5025252;28;20635;-67
2022/03/11 01:26:05;;;;;;;12.53;6.87;;;;;;;;;;5021181;28;20542;-67
2022/03/11 01:28:31;;;;;;;12.93;7.00;;;;;;;;;;5019635;28;20226;-67
2022/03/11 01:30:56;;;;;;;12.90;7.43;;;;;;;;;;5027814;28;20578;-67
2022/03/11 01:33:22;;;;;;;16.57;7.03;;;;;;;;;;5019284;28;20217;-67
2022/03/11 01:35:48;;;;;;;15.43;7.17;;;;;;;;;;5021312;28;20286;-67
2022/03/11 01:38:13;;;;;;;15.10;7.03;;;;;;;;;;5030789;28;20209;-67
2022/03/11 01:40:39;;;;;;;13.60;7.33;;;;;;;;;;5022214;28;20194;-67
2022/03/11 01:43:11;;;;;;;11.90;7.00;;;;;;;;;;5023059;28;20206;-67
2022/03/11 01:45:36;;;;;;;14.43;7.23;;;;;;;;;;5020005;28;20209;-67
2022/03/11 01:48:01;;;;;;;13.90;7.60;;;;;;;;;;5023827;28;20213;-67
2022/03/11 01:50:27;;;;;;;12.40;7.33;;;;;;;;;;5030058;28;20497;-66
2022/03/11 01:52:52;;;;;;;13.27;7.13;;;;;;;;;;5024323;28;20201;-66
2022/03/11 01:55:18;;;;;;;14.43;7.27;;;;;;;;;;5027950;28;20182;-65
2022/03/11 01:57:43;;;;;;;13.33;6.50;;;;;;;;;;5017644;28;20194;-66
2022/03/11 02:00:09;;;;;;;14.10;7.90;;;;;;;;;;5027843;28;20179;-65
2022/03/11 02:02:35;;;;;;;12.27;7.27;;;;;;;;;;5014754;28;20202;-66
2022/03/11 02:05:00;;;;;;;14.97;7.07;;;;;;;;;;5023987;28;20182;-66
2022/03/11 02:07:26;;;;;;;14.87;6.93;;;;;;;;;;5027723;28;20712;-67
2022/03/11 02:09:53;;;;;;;22.43;8.43;;;;;;;;;;5028519;28;20249;-66
2022/03/11 02:12:34;;;;;;;21.20;7.77;;;;;;;;;;5020736;28;20175;-67
2022/03/11 02:15:04;;;;;;;18.53;7.67;;;;;;;;;;5014417;28;20336;-66
2022/03/11 02:17:29;;;;;;;16.80;8.50;;;;;;;;;;5023887;28;20201;-67
2022/03/11 02:19:55;;;;;;;14.20;7.90;;;;;;;;;;5028848;28;20185;-67
2022/03/11 02:22:23;;;;;;;16.93;7.77;;;;;;;;;;5021437;28;20211;-66
2022/03/11 02:24:49;;;;;;;14.63;7.60;;;;;;;;;;5028720;28;20201;-66
2022/03/11 02:27:15;;;;;;;12.73;7.00;;;;;;;;;;5024224;28;20182;-67
2022/03/11 02:29:40;;;;;;;15.03;7.60;;;;;;;;;;5027658;28;20255;-66
2022/03/11 02:32:06;;;;;;;16.67;8.07;;;;;;;;;;5034879;28;20244;-66
2022/03/11 02:34:31;;;;;;;16.17;8.00;;;;;;;;;;5029329;28;20181;-66
2022/03/11 02:36:57;;;;;;;17.87;8.60;;;;;;;;;;5032352;28;20653;-66
2022/03/11 02:39:22;;;;;;;16.37;8.13;;;;;;;;;;5020837;28;20186;-66
2022/03/11 02:41:49;;;;;;;19.80;9.10;;;;;;;;;;5028630;28;20206;-67
2022/03/11 02:44:15;;;;;;;18.10;7.97;;;;;;;;;;5033794;28;20212;-67
2022/03/11 02:46:41;;;;;;;16.40;8.43;;;;;;;;;;5026355;28;20666;-66
2022/03/11 02:49:06;;;;;;;17.00;9.07;;;;;;;;;;5026189;28;20190;-66
2022/03/11 02:51:31;;;;;;;18.83;8.43;;;;;;;;;;5031341;28;20181;-66
2022/03/11 02:53:57;;;;;;;16.33;8.63;;;;;;;;;;5023248;28;20269;-66
2022/03/11 02:56:23;;;;;;;18.30;9.13;;;;;;;;;;5020163;28;20186;-67
2022/03/11 02:58:48;;;;;;;17.23;8.90;;;;;;;;;;5024593;28;20252;-67
2022/03/11 03:01:13;;;;;;;18.87;9.10;;;;;;;;;;5023853;28;20289;-66
2022/03/11 03:03:39;;;;;;;19.13;8.97;;;;;;;;;;5023380;28;20213;-67
2022/03/11 03:06:05;;;;;;;19.20;9.10;;;;;;;;;;5026530;28;20223;-68
2022/03/11 03:08:30;;;;;;;18.37;9.10;;;;;;;;;;5026998;28;20228;-66
2022/03/11 03:10:56;;;;;;;15.00;8.73;;;;;;;;;;5022522;28;20560;-68
2022/03/11 03:13:21;;;;;;;17.43;8.80;;;;;;;;;;5018888;28;20209;-66
2022/03/11 03:15:46;;;;;;;17.97;8.90;;;;;;;;;;5026326;28;20236;-67
2022/03/11 03:18:12;;;;;;;17.27;8.73;;;;;;;;;;5020384;28;20590;-67
2022/03/11 03:20:37;;;;;;;17.03;8.90;;;;;;;;;;5036505;28;20189;-67
2022/03/11 03:23:03;;;;;;;16.80;8.73;;;;;;;;;;5025640;28;20213;-66
2022/03/11 03:25:28;;;;;;;16.73;9.03;;;;;;;;;;5042901;28;20283;-66
2022/03/11 03:27:53;;;;;;;16.70;9.30;;;;;;;;;;5030400;28;20178;-67
2022/03/11 03:30:19;;;;;;;17.83;8.87;;;;;;;;;;5026346;28;20261;-67
2022/03/11 03:32:44;;;;;;;17.43;9.07;;;;;;;;;;5025844;28;20490;-67
2022/03/11 03:35:11;;;;;;;20.03;9.00;;;;;;;;;;5031096;28;20572;-66
2022/03/11 03:37:37;;;;;;;15.90;8.77;;;;;;;;;;5036447;28;20265;-66
2022/03/11 03:40:04;;;;;;;18.13;9.77;;;;;;;;;;5022841;28;20274;-66
2022/03/11 03:42:29;;;;;;;21.50;9.40;;;;;;;;;;5023225;28;20198;-67
2022/03/11 03:44:55;;;;;;;20.83;10.07;;;;;;;;;;5033706;28;20193;-67
2022/03/11 03:47:20;;;;;;;17.17;8.70;;;;;;;;;;5020598;28;20182;-67
2022/03/11 03:49:46;;;;;;;18.20;9.83;;;;;;;;;;5015555;28;20545;-67
2022/03/11 03:52:12;;;;;;;22.93;10.73;;;;;;;;;;5027191;28;20209;-67
2022/03/11 03:54:40;;;;;;;19.23;9.77;;;;;;;;;;5024558;28;20681;-67
2022/03/11 03:57:07;;;;;;;17.50;9.60;;;;;;;;;;5026462;28;20193;-66
2022/03/11 03:59:32;;;;;;;19.33;10.03;;;;;;;;;;5024791;28;20612;-66
2022/03/11 04:01:58;;;;;;;22.40;9.43;;;;;;;;;;5019884;28;20313;-66
2022/03/11 04:04:23;;;;;;;20.00;9.70;;;;;;;;;;5029233;28;20649;-67
2022/03/11 04:06:49;;;;;;;19.67;9.20;;;;;;;;;;5026826;28;20246;-67
2022/03/11 04:09:14;;;;;;;18.27;8.80;;;;;;;;;;5022028;28;20259;-67
2022/03/11 04:11:40;;;;;;;18.30;9.57;;;;;;;;;;5026065;28;20232;-67
2022/03/11 04:14:06;;;;;;;20.83;9.80;;;;;;;;;;5020016;28;20192;-67
2022/03/11 04:16:32;;;;;;;20.27;9.47;;;;;;;;;;5026005;28;20261;-67
2022/03/11 04:18:57;;;;;;;19.33;9.70;;;;;;;;;;5023855;28;20273;-67
2022/03/11 04:21:23;;;;;;;22.33;9.20;;;;;;;;;;5026518;28;20311;-67
2022/03/11 04:23:50;;;;;;;18.90;9.43;;;;;;;;;;5024478;28;20193;-67
2022/03/11 04:26:16;;;;;;;18.37;9.10;;;;;;;;;;5026498;28;20184;-67
2022/03/11 04:28:41;;;;;;;18.47;9.53;;;;;;;;;;5020024;28;20385;-67
2022/03/11 04:31:09;;;;;;;20.57;9.63;;;;;;;;;;5026378;28;20249;-67
2022/03/11 04:33:35;;;;;;;18.57;8.70;;;;;;;;;;5014322;28;20182;-67
2022/03/11 04:36:03;;;;;;;19.90;9.90;;;;;;;;;;5033841;28;20358;-67
2022/03/11 04:38:29;;;;;;;19.33;9.67;;;;;;;;;;5020620;28;20213;-67
2022/03/11 04:40:54;;;;;;;18.23;9.93;;;;;;;;;;5015454;28;20183;-68
2022/03/11 04:43:20;;;;;;;19.17;9.43;;;;;;;;;;5021540;28;20186;-67
2022/03/11 04:45:45;;;;;;;19.07;10.13;;;;;;;;;;5025958;28;20261;-67
2022/03/11 04:48:11;;;;;;;17.57;9.87;;;;;;;;;;5026345;28;20208;-67
2022/03/11 04:50:37;;;;;;;17.07;9.57;;;;;;;;;;5040870;28;20623;-67
2022/03/11 04:53:03;;;;;;;19.23;9.53;;;;;;;;;;5032380;28;20236;-67
2022/03/11 04:55:28;;;;;;;21.10;10.30;;;;;;;;;;5029122;28;20630;-67
2022/03/11 04:57:54;;;;;;;20.33;10.03;;;;;;;;;;5026421;28;20229;-68
2022/03/11 05:00:19;;;;;;;22.40;10.23;;;;;;;;;;5015592;28;20186;-67
2022/03/11 05:02:45;;;;;;;18.23;9.40;;;;;;;;;;5021530;28;20214;-66
2022/03/11 05:05:11;;;;;;;20.97;10.20;;;;;;;;;;5034193;28;20576;-68
2022/03/11 05:07:37;;;;;;;19.00;9.67;;;;;;;;;;5027313;28;20218;-66
2022/03/11 05:10:04;;;;;;;22.33;9.40;;;;;;;;;;5036734;28;20315;-67
2022/03/11 05:12:30;;;;;;;22.83;10.07;;;;;;;;;;5024536;28;20302;-66
2022/03/11 05:14:56;;;;;;;19.43;10.50;;;;;;;;;;5015583;28;20205;-67
2022/03/11 05:17:21;;;;;;;22.47;11.10;;;;;;;;;;5019185;28;20278;-67
2022/03/11 05:19:46;;;;;;;21.93;10.77;;;;;;;;;;5040327;28;20335;-67
2022/03/11 05:22:12;;;;;;;21.83;9.87;;;;;;;;;;5027122;28;20675;-67
2022/03/11 05:24:38;;;;;;;22.27;10.27;;;;;;;;;;5032312;28;20508;-66
2022/03/11 05:27:05;;;;;;;21.10;10.80;;;;;;;;;;5031080;28;20182;-66
2022/03/11 05:29:32;;;;;;;20.53;10.77;;;;;;;;;;5021797;28;20250;-67
2022/03/11 05:31:58;;;;;;;22.57;10.73;;;;;;;;;;5035062;28;20685;-67
2022/03/11 05:34:23;;;;;;;20.43;10.00;;;;;;;;;;5018380;28;20179;-67
2022/03/11 05:36:49;;;;;;;22.70;10.43;;;;;;;;;;5024114;28;20602;-67
2022/03/11 05:39:14;;;;;;;19.20;10.20;;;;;;;;;;5030792;28;20190;-67
2022/03/11 05:41:39;;;;;;;21.30;9.83;;;;;;;;;;5042432;28;20567;-67
2022/03/11 05:44:05;;;;;;;19.63;10.40;;;;;;;;;;5027355;28;20187;-67
2022/03/11 05:46:30;;;;;;;22.43;10.63;;;;;;;;;;5025348;28;20236;-67
2022/03/11 05:48:56;;;;;;;23.73;10.30;;;;;;;;;;5024296;28;20635;-67
2022/03/11 05:51:21;;;;;;;20.50;10.77;;;;;;;;;;5038706;28;20255;-67
2022/03/11 05:53:47;;;;;;;20.93;10.67;;;;;;;;;;5026534;28;20229;-67
2022/03/11 05:56:12;;;;;;;18.67;9.77;;;;;;;;;;5022664;28;20185;-67
2022/03/11 05:58:37;;;;;;;22.57;10.57;;;;;;;;;;5039276;28;20174;-67
2022/03/11 06:01:03;;;;;;;19.60;10.20;;;;;;;;;;5030618;28;20177;-67
2022/03/11 06:03:29;;;;;;;20.13;10.67;;;;;;;;;;5038089;28;20173;-67
2022/03/11 06:05:55;;;;;;;21.53;10.23;;;;;;;;;;5042582;28;20534;-67
2022/03/11 06:08:20;;;;;;;21.43;10.80;;;;;;;;;;5032295;28;20225;-66
2022/03/11 06:10:47;;;;;;;23.13;11.03;;;;;;;;;;5025475;28;20210;-67
2022/03/11 06:13:14;;;;;;;23.00;11.07;;;;;;;;;;5028096;28;20193;-67
2022/03/11 06:15:42;;;;;;;21.07;10.03;;;;;;;;;;5037064;28;20185;-66
2022/03/11 06:18:09;;;;;;;21.50;10.63;;;;;;;;;;5032324;28;20295;-67
2022/03/11 06:20:35;;;;;;;20.93;10.57;;;;;;;;;;5027186;28;20264;-67
2022/03/11 06:23:01;;;;;;;21.70;10.83;;;;;;;;;;5029210;28;20539;-67
2022/03/11 06:25:26;;;;;;;21.00;10.40;;;;;;;;;;5027449;28;20186;-67
2022/03/11 06:27:51;;;;;;;25.77;11.00;;;;;;;;;;5028069;28;20236;-67
2022/03/11 06:30:17;;;;;;;23.17;10.93;;;;;;;;;;5032872;28;20663;-67
2022/03/11 06:32:44;;;;;;;19.73;11.13;;;;;;;;;;5026275;28;20190;-65
2022/03/11 06:35:11;;;;;;;28.03;12.10;;;;;;;;;;5022017;28;20304;-67
2022/03/11 06:37:37;;;;;;;22.13;11.37;;;;;;;;;;5047693;28;20185;-66
2022/03/11 06:40:02;;;;;;;23.07;11.37;;;;;;;;;;5033222;28;20264;-67
2022/03/11 06:42:35;;;;;;;23.40;11.50;;;;;;;;;;5025035;28;20749;-67
2022/03/11 06:45:01;;;;;;;23.57;12.00;;;;;;;;;;5018774;28;20672;-67
2022/03/11 06:47:26;;;;;;;21.70;10.23;;;;;;;;;;5033720;28;20329;-67
2022/03/11 06:49:52;;;;;;;22.70;11.37;;;;;;;;;;5028053;28;20628;-67
2022/03/11 06:52:17;;;;;;;24.60;11.67;;;;;;;;;;5042391;28;20242;-67
2022/03/11 06:54:42;;;;;;;25.00;11.67;;;;;;;;;;5043132;28;20193;-66
2022/03/11 06:57:08;;;;;;;20.47;10.67;;;;;;;;;;5041773;28;20707;-67
2022/03/11 06:59:33;;;;;;;22.67;11.20;;;;;;;;;;5037364;28;20232;-68
2022/03/11 07:01:58;;;;;;;25.63;12.50;;;;;;;;;;5035503;28;20198;-68
2022/03/11 07:04:24;;;;;;;22.37;10.80;;;;;;;;;;5034392;28;20335;-66
2022/03/11 07:06:49;;;;;;;22.90;11.50;;;;;;;;;;5038912;28;20213;-67
2022/03/11 07:09:14;;;;;;;21.63;11.73;;;;;;;;;;5037911;28;20234;-67
2022/03/11 07:11:39;;;;;;;27.80;12.10;;;;;;;;;;5038344;28;20190;-67
2022/03/11 07:14:05;;;;;;;27.10;11.33;;;;;;;;;;5040143;28;20181;-67
2022/03/11 07:16:30;;;;;;;24.90;12.27;;;;;;;;;;5042893;28;20582;-67
2022/03/11 07:18:56;;;;;;;20.30;11.00;;;;;;;;;;5040536;28;20189;-67
2022/03/11 07:21:21;;;;;;;22.67;11.70;;;;;;;;;;5027472;28;20296;-67
2022/03/11 07:23:51;;;;;;;27.93;12.60;;;;;;;;;;5035029;28;20558;-67
2022/03/11 07:26:17;;;;;;;23.40;11.37;;;;;;;;;;5032987;28;20735;-67
2022/03/11 07:28:42;;;;;;;24.53;11.80;;;;;;;;;;5038044;28;20189;-66
2022/03/11 07:31:08;;;;;;;23.60;11.60;;;;;;;;;;5036332;28;21491;-67
2022/03/11 07:33:33;;;;;;;22.40;11.37;;;;;;;;;;5033022;28;20405;-66
2022/03/11 07:35:58;;;;;;;22.00;11.17;;;;;;;;;;5031328;28;21445;-67
2022/03/11 07:38:30;;;;;;;27.80;11.73;;;;;;;;;;5034397;28;20186;-67
2022/03/11 07:40:56;;;;;;;21.80;10.90;;;;;;;;;;5025693;28;20648;-67
2022/03/11 07:43:21;;;;;;;22.83;11.57;;;;;;;;;;5028801;28;20221;-67
2022/03/11 07:45:46;;;;;;;24.20;11.77;;;;;;;;;;5039716;28;20190;-67
2022/03/11 07:48:12;;;;;;;31.63;12.33;;;;;;;;;;5040230;28;20297;-67
2022/03/11 07:50:37;;;;;;;21.33;11.17;;;;;;;;;;5039445;28;20594;-67
2022/03/11 07:53:03;;;;;;;20.50;11.03;;;;;;;;;;5032730;28;20288;-67
2022/03/11 07:55:28;;;;;;;23.27;11.27;;;;;;;;;;5032966;28;20610;-67
2022/03/11 07:57:54;;;;;;;23.83;10.90;;;;;;;;;;5030679;28;20200;-67
2022/03/11 08:00:19;;;;;;;22.60;11.87;;;;;;;;;;5034583;28;20185;-67
2022/03/11 08:02:44;;;;;;;23.37;11.70;;;;;;;;;;5036245;28;20527;-67
2022/03/11 08:05:17;;;;;;;21.23;10.97;;;;;;;;;;5031161;28;20205;-67
2022/03/11 08:07:49;;;;;;;24.40;11.83;;;;;;;;;;5038701;28;20294;-67
2022/03/11 08:10:18;;;;;;;21.47;11.77;;;;;;;;;;5036977;28;20676;-67
2022/03/11 08:12:44;;;;;;;20.80;11.30;;;;;;;;;;5033858;28;20178;-68
2022/03/11 08:15:12;;;;;;;27.57;12.27;;;;;;;;;;5025887;28;20466;-67
2022/03/11 08:17:38;;;;;;;25.93;12.17;;;;;;;;;;5039177;28;20189;-68
2022/03/11 08:20:05;;;;;;;21.10;11.20;;;;;;;;;;5037108;28;20499;-66
2022/03/11 08:22:30;;;;;;;21.83;11.57;;;;;;;;;;5032620;28;20240;-67
2022/03/11 08:24:55;;;;;;;20.13;11.13;;;;;;;;;;5033054;28;20213;-67
2022/03/11 08:27:21;;;;;;;23.53;11.40;;;;;;;;;;5042922;28;20351;-67
2022/03/11 08:29:46;;;;;;;22.10;11.50;;;;;;;;;;5033246;28;20197;-67
2022/03/11 08:32:12;;;;;;;22.27;11.37;;;;;;;;;;5024559;28;20297;-67
2022/03/11 08:34:37;;;;;;;26.10;12.13;;;;;;;;;;5021959;28;20216;-67
2022/03/11 08:37:04;;;;;;;23.00;11.33;;;;;;;;;;5015373;28;20595;-66
2022/03/11 08:39:29;;;;;;;24.00;11.97;;;;;;;;;;5016891;28;20213;-66
2022/03/11 08:41:54;;;;;;;24.00;11.67;;;;;;;;;;5031937;28;20209;-67
2022/03/11 08:44:20;;;;;;;22.47;11.47;;;;;;;;;;5038575;28;20268;-66
2022/03/11 08:46:45;;;;;;;21.93;11.33;;;;;;;;;;5016538;28;20626;-66
2022/03/11 08:49:10;;;;;;;22.20;11.00;;;;;;;;;;5036605;28;20510;-67
2022/03/11 08:51:36;;;;;;;22.03;12.13;;;;;;;;;;5033143;28;20223;-67
2022/03/11 08:54:02;;;;;;;20.70;11.10;;;;;;;;;;5037182;28;20197;-67
2022/03/11 08:56:28;;;;;;;24.47;11.73;;;;;;;;;;5027375;28;20186;-67
2022/03/11 08:58:53;;;;;;;23.93;11.87;;;;;;;;;;5036835;28;20193;-66
2022/03/11 09:01:18;;;;;;;21.80;11.57;;;;;;;;;;5026640;28;20182;-67
2022/03/11 09:03:44;;;;;;;20.83;11.20;;;;;;;;;;5035006;28;20178;-67
2022/03/11 09:06:09;;;;;;;22.63;11.60;;;;;;;;;;5022119;28;20193;-67
2022/03/11 09:08:35;;;;;;;21.43;11.13;;;;;;;;;;5033198;28;20717;-65
2022/03/11 09:11:00;;;;;;;23.07;11.70;;;;;;;;;;5028568;28;20189;-66
2022/03/11 09:13:25;;;;;;;19.42;10.55;;;;;;;;;;5032333;28;20198;-65
2022/03/11 09:15:51;;;;;;;20.57;10.87;;;;;;;;;;5025495;28;20216;-66
2022/03/11 09:18:16;;;;;;;22.13;12.00;;;;;;;;;;5029193;28;20738;-66
2022/03/11 09:20:42;;;;;;;23.47;11.50;;;;;;;;;;5027890;28;20557;-66
2022/03/11 09:23:07;;;;;;;20.27;11.52;;;;;;;;;;5041136;28;20205;-66
2022/03/11 09:25:33;;;;;;;18.85;10.57;;;;;;;;;;5028066;28;20252;-66
2022/03/11 09:27:59;;;;;;;19.63;11.40;;;;;;;;;;5029634;28;20197;-67
2022/03/11 09:30:24;;;;;;;20.23;11.38;;;;;;;;;;5039879;28;20230;-68
2022/03/11 09:32:49;;;;;;;24.17;11.30;;;;;;;;;;5021340;28;20175;-67
2022/03/11 09:35:18;;;;;;;22.80;11.45;;;;;;;;;;5034673;28;20570;-67
2022/03/11 09:37:43;;;;;;;20.05;11.23;;;;;;;;;;5019974;28;20186;-66
2022/03/11 09:40:10;;;;;;;22.37;11.10;;;;;;;;;;5027480;28;20281;-66
2022/03/11 09:42:35;;;;;;;21.05;12.10;;;;;;;;;;5037301;28;20351;-67
2022/03/11 09:45:01;;;;;;;20.20;11.90;;;;;;;;;;5027658;28;20654;-66
2022/03/11 09:47:26;;;;;;;20.35;10.75;;;;;;;;;;5023987;28;20502;-67
2022/03/11 09:49:52;;;;;;;19.10;10.55;;;;;;;;;;5028624;28;20190;-66
2022/03/11 09:52:20;;;;;;;23.55;11.60;;;;;;;;;;5035128;28;20182;-67
2022/03/11 09:54:46;;;;;;;21.60;11.18;;;;;;;;;;5034965;28;20194;-66
2022/03/11 09:57:17;;;;;;;20.48;12.00;;;;;;;;;;5028290;28;20198;-67
2022/03/11 09:59:42;;;;;;;24.08;12.07;;;;;;;;;;5034442;28;20190;-65
2022/03/11 10:02:13;;;;;;;21.23;11.48;;;;;;;;;;5041877;28;20197;-66
2022/03/11 10:04:51;;;;;;;20.27;11.18;;;;;;;;;;5034214;28;20182;-66
2022/03/11 10:07:25;;;;;;;23.42;11.88;;;;;;;;;;5020641;28;21507;-67
2022/03/11 10:09:52;;;;;;;23.40;12.20;;;;;;;;;;5033882;28;20181;-67
2022/03/11 10:12:25;;;;;;;22.50;12.07;;;;;;;;;;5019141;28;20189;-67
2022/03/11 10:14:55;;;;;;;22.88;12.27;;;;;;;;;;5026858;28;20543;-66
2022/03/11 10:17:22;;;;;;;22.98;12.40;;;;;;;;;;5027139;28;20192;-67
2022/03/11 10:20:05;;;;;;;21.25;11.35;;;;;;;;;;5047139;28;20177;-67
2022/03/11 10:22:31;;;;;;;20.60;11.35;;;;;;;;;;5029701;28;20287;-67
2022/03/11 10:25:05;;;;;;;22.35;11.82;;;;;;;;;;5038651;28;20186;-67
2022/03/11 10:27:30;;;;;;;20.70;11.88;;;;;;;;;;5041284;28;20166;-67
2022/03/11 10:30:01;;;;;;;26.02;11.95;;;;;;;;;;5035619;28;20178;-67
2022/03/11 10:32:27;;;;;;;20.50;11.15;;;;;;;;;;5032534;28;20174;-67
2022/03/11 10:34:52;;;;;;;24.13;12.85;;;;;;;;;;5032744;28;20554;-67
2022/03/11 10:37:19;;;;;;;24.13;12.98;;;;;;;;;;5039589;28;20205;-67
2022/03/11 10:39:46;;;;;;;22.05;12.95;;;;;;;;;;5044322;28;20195;-67
2022/03/11 10:42:12;;;;;;;22.58;12.63;;;;;;;;;;5039583;28;20765;-68
2022/03/11 10:44:38;;;;;;;23.48;12.38;;;;;;;;;;5044293;28;20289;-68
2022/03/11 10:47:25;;;;;;;25.38;12.52;;;;;;;;;;5041149;28;20198;-67
2022/03/11 10:49:52;;;;;;;20.20;12.25;;;;;;;;;;5044895;28;20177;-68
2022/03/11 10:52:38;;;;;;;22.42;12.50;;;;;;;;;;5041410;28;20199;-67
2022/03/11 10:55:28;;;;;;;21.30;11.65;;;;;;;;;;5040243;28;20205;-67
2022/03/11 10:57:55;;;;;;;22.02;12.20;;;;;;;;;;5045911;28;20203;-67
2022/03/11 11:00:33;;;;;;;22.48;12.70;;;;;;;;;;5035818;28;20257;-67
2022/03/11 11:03:01;;;;;;;19.33;11.10;;;;;;;;;;5044901;28;20286;-67
2022/03/11 11:05:28;;;;;;;19.77;11.43;;;;;;;;;;5038813;28;20178;-68
2022/03/11 11:07:53;;;;;;;22.98;12.27;;;;;;;;;;5020816;28;20245;-67
2022/03/11 11:10:21;;;;;;;20.45;11.63;;;;;;;;;;5035271;28;20509;-67
2022/03/11 11:12:48;;;;;;;19.35;12.07;;;;;;;;;;5046782;28;20186;-66
2022/03/11 11:15:17;;;;;;;23.05;12.55;;;;;;;;;;5037205;28;20503;-68
2022/03/11 11:17:49;;;;;;;21.38;11.88;;;;;;;;;;5041109;28;20263;-67
2022/03/11 11:20:17;;;;;;;23.02;11.93;;;;;;;;;;5029152;28;20244;-69
2022/03/11 11:22:45;;;;;;;23.10;12.43;;;;;;;;;;5029784;28;20582;-67
2022/03/11 11:25:10;;;;;;;21.08;11.05;;;;;;;;;;5037260;28;20192;-67
2022/03/11 11:27:37;;;;;;;21.65;12.77;;;;;;;;;;5042024;28;20185;-67
2022/03/11 11:30:03;;;;;;;24.90;11.70;;;;;;;;;;5042365;28;20187;-67
2022/03/11 11:32:29;;;;;;;29.35;12.73;;;;;;;;;;5038778;28;20323;-67
2022/03/11 11:35:14;;;;;;;21.45;12.32;;;;;;;;;;5034060;28;20189;-68
2022/03/11 11:37:40;;;;;;;21.45;12.32;;;;;;;;;;5036385;28;20191;-67
2022/03/11 11:40:28;;;;;;;23.33;12.95;;;;;;;;;;5042995;28;20177;-67
2022/03/11 11:43:12;;;;;;;21.52;12.15;;;;;;;;;;5041170;28;20270;-67
2022/03/11 11:45:48;;;;;;;27.35;12.63;;;;;;;;;;5032193;28;20660;-67
2022/03/11 11:48:31;;;;;;;22.98;12.32;;;;;;;;;;5030931;28;20344;-68
2022/03/11 11:51:00;;;;;;;21.80;12.77;;;;;;;;;;5029421;28;20797;-68
2022/03/11 11:53:34;;;;;;;24.23;12.55;;;;;;;;;;5032375;28;20685;-67
2022/03/11 11:56:29;;;;;;;19.58;11.68;;;;;;;;;;5024824;28;20654;-67
2022/03/11 11:58:56;;;;;;;22.40;12.40;;;;;;;;;;5015880;28;20657;-68
2022/03/11 12:01:41;;;;;;;20.08;11.65;;;;;;;;;;5020693;28;20179;-67
2022/03/11 12:04:19;;;;;;;21.55;12.50;;;;;;;;;;5024426;28;20236;-67
2022/03/11 12:07:00;;;;;;;21.77;12.18;;;;;;;;;;5024024;28;20652;-66
2022/03/11 12:10:00;;;;;;;19.25;11.60;;;;;;;;;;5025998;28;20671;-66
2022/03/11 12:15:01;;;;;;;21.63;11.60;;;;;;;;;;5024772;28;20247;-67
2022/03/11 12:17:40;;;;;;;23.08;11.88;;;;;;;;;;5023356;28;20193;-67
2022/03/11 12:20:45;;;;;;;23.92;12.05;;;;;;;;;;5027109;28;20502;-67
2022/03/11 12:23:20;;;;;;;21.25;12.80;;;;;;;;;;5023851;28;20654;-67
2022/03/11 12:25:54;;;;;;;19.52;12.15;;;;;;;;;;5030529;28;20181;-67
2022/03/11 12:28:34;;;;;;;19.85;11.93;;;;;;;;;;5025666;28;20343;-67
2022/03/11 12:31:10;;;;;;;21.10;11.73;;;;;;;;;;5024959;28;20712;-67
2022/03/11 12:33:45;;;;;;;23.63;12.05;;;;;;;;;;5036647;28;20173;-67
2022/03/11 12:36:15;;;;;;;21.85;12.07;;;;;;;;;;5029287;28;20169;-68
2022/03/11 12:38:41;;;;;;;23.98;12.40;;;;;;;;;;5031823;28;20257;-67
2022/03/11 12:41:08;;;;;;;23.10;12.27;;;;;;;;;;5029568;28;20178;-68
2022/03/11 12:43:35;;;;;;;20.25;11.77;;;;;;;;;;5029671;28;20291;-67
2022/03/11 12:46:01;;;;;;;23.70;12.25;;;;;;;;;;5029400;28;20181;-67
2022/03/11 12:48:29;;;;;;;22.80;11.80;;;;;;;;;;5015897;28;20190;-66
2022/03/11 12:50:55;;;;;;;20.92;12.50;;;;;;;;;;5030419;28;20178;-66
2022/03/11 12:53:22;;;;;;;21.55;12.23;;;;;;;;;;5032110;28;20336;-67
2022/03/11 12:55:50;;;;;;;23.08;11.68;;;;;;;;;;5019476;28;20606;-66
2022/03/11 12:58:24;;;;;;;19.48;11.57;;;;;;;;;;5025699;28;20649;-67
2022/03/11 13:00:52;;;;;;;19.13;11.32;;;;;;;;;;5029213;28;20249;-66
2022/03/11 13:03:24;;;;;;;21.17;11.68;;;;;;;;;;5029343;28;20205;-66
2022/03/11 13:05:50;;;;;;;21.85;11.88;;;;;;;;;;5030408;28;20529;-67
2022/03/11 13:08:17;;;;;;;18.45;12.13;;;;;;;;;;5030118;28;20276;-68
2022/03/11 13:10:44;;;;;;;22.00;11.85;;;;;;;;;;5031339;28;20205;-67
2022/03/11 13:13:13;;;;;;;19.38;11.75;;;;;;;;;;5032820;28;20268;-67
2022/03/11 13:15:40;;;;;;;21.25;11.40;;;;;;;;;;5031632;28;20252;-67
2022/03/11 13:18:11;;;;;;;20.33;11.38;;;;;;;;;;5041173;28;20189;-67
2022/03/11 13:20:46;;;;;;;21.25;10.57;;;;;;;;;;5044293;28;20202;-67
2022/03/11 13:23:14;;;;;;;19.27;11.70;;;;;;;;;;5033573;28;20563;-68
2022/03/11 13:25:45;;;;;;;20.98;11.70;;;;;;;;;;5030691;28;20185;-67
2022/03/11 13:28:10;;;;;;;19.60;10.95;;;;;;;;;;5028860;28;20264;-67
2022/03/11 13:30:40;;;;;;;21.73;11.52;;;;;;;;;;5030357;28;20222;-67
2022/03/11 13:33:13;;;;;;;19.98;11.65;;;;;;;;;;5028248;28;20248;-66
2022/03/11 13:35:39;;;;;;;19.50;11.55;;;;;;;;;;5026916;28;20264;-67
2022/03/11 13:38:05;;;;;;;19.58;11.88;;;;;;;;;;5028074;28;20178;-66
2022/03/11 13:40:30;;;;;;;20.08;11.35;;;;;;;;;;5031257;28;20326;-66
2022/03/11 13:42:59;;;;;;;19.92;11.35;;;;;;;;;;5032173;28;20255;-66
2022/03/11 13:45:29;;;;;;;18.15;10.80;;;;;;;;;;5029664;28;20412;-66
2022/03/11 13:48:09;;;;;;;21.00;11.60;;;;;;;;;;5019875;28;20183;-66
2022/03/11 13:50:36;;;;;;;18.05;10.45;;;;;;;;;;5032031;28;20185;-66
2022/03/11 13:53:02;;;;;;;20.67;10.55;;;;;;;;;;5017871;28;20187;-67
2022/03/11 13:55:33;;;;;;;19.38;11.23;;;;;;;;;;5027418;28;20182;-67
2022/03/11 13:58:16;;;;;;;17.13;10.88;;;;;;;;;;5020200;28;20190;-67
2022/03/11 14:00:42;;;;;;;19.50;10.75;;;;;;;;;;5048168;28;20177;-68
2022/03/11 14:03:22;;;;;;;19.48;10.73;;;;;;;;;;5021064;28;20199;-67
2022/03/11 14:05:49;;;;;;;19.42;9.57;;;;;;;;;;5039465;28;20252;-68
2022/03/11 14:08:25;;;;;;;20.23;10.35;;;;;;;;;;5016343;28;20231;-67
2022/03/11 14:10:51;;;;;;;19.60;10.35;;;;;;;;;;5030783;28;20255;-66
2022/03/11 14:13:21;;;;;;;21.38;11.15;;;;;;;;;;5019634;28;20193;-67
2022/03/11 14:15:49;;;;;;;18.67;10.38;;;;;;;;;;5030363;28;20188;-67
2022/03/11 14:18:18;;;;;;;18.73;10.15;;;;;;;;;;5016442;28;20194;-68
2022/03/11 14:20:45;;;;;;;18.38;10.55;;;;;;;;;;5024258;28;20182;-67
2022/03/11 14:23:11;;;;;;;17.38;10.77;;;;;;;;;;5018073;28;20610;-67
2022/03/11 14:25:36;;;;;;;17.85;10.27;;;;;;;;;;5027153;28;20615;-67